Time;durP1;ratioP1;P1;durP2;ratioP2;P2;SDS_P1;SDS_P2;PMS_P1;PMS_P2;Temp;Humidity;BMP_temperature;BMP_pressure;BME280_temperature;BME280_humidity;BME280_pressure;Samples;Min_cycle;Max_cycle;Signal;HPM_P1;HPM_P2
2022/06/18 00:01:57;;;;;;;3.75;0.90;;;18.00;99.90;;;17.55;100.00;98051.53;4975294;28;20053;-67
2022/06/18 00:04:25;;;;;;;1.77;0.80;;;18.00;99.90;;;17.60;100.00;98045.97;4980086;28;20046;-69
2022/06/18 00:07:00;;;;;;;6.18;1.20;;;18.00;99.90;;;17.62;100.00;98053.78;4979667;28;20054;-67
2022/06/18 00:09:33;;;;;;;1.95;0.90;;;18.10;99.90;;;17.51;100.00;98044.78;4980805;28;20142;-68
2022/06/18 00:15:13;;;;;;;4.50;1.10;;;18.10;99.90;;;17.35;100.00;98042.28;4980119;28;20050;-66
2022/06/18 00:17:41;;;;;;;3.45;1.00;;;18.10;99.90;;;17.19;100.00;98043.34;4981842;28;20133;-68
2022/06/18 00:20:10;;;;;;;6.15;1.10;;;18.00;99.90;;;17.16;100.00;98047.00;4981997;28;20050;-66
2022/06/18 00:22:39;;;;;;;1.70;0.98;;;18.00;99.90;;;17.10;100.00;98040.34;4978385;28;20054;-68
2022/06/18 00:25:18;;;;;;;3.92;1.17;;;17.90;99.90;;;17.10;100.00;98050.81;4981177;28;20047;-67
2022/06/18 00:27:45;;;;;;;4.38;1.00;;;17.80;99.90;;;16.95;100.00;98043.09;4977751;28;20601;-68
2022/06/18 00:30:19;;;;;;;3.30;0.98;;;17.80;99.90;;;16.86;100.00;98047.94;4981009;28;20302;-69
2022/06/18 00:32:47;;;;;;;3.53;1.00;;;17.70;99.90;;;16.96;100.00;98044.75;4977922;28;20129;-67
2022/06/18 00:35:15;;;;;;;3.33;1.05;;;17.70;99.90;;;16.97;100.00;98041.19;4980739;28;20076;-65
2022/06/18 00:37:43;;;;;;;4.22;0.90;;;17.70;99.90;;;16.91;100.00;98035.38;4978258;28;20135;-66
2022/06/18 00:40:32;;;;;;;1.65;0.80;;;17.60;99.90;;;16.77;100.00;98035.34;4981151;28;20878;-66
2022/06/18 00:43:07;;;;;;;4.28;0.90;;;17.60;99.90;;;16.67;100.00;98036.84;4979654;28;20078;-67
2022/06/18 00:45:34;;;;;;;4.07;1.05;;;17.50;99.90;;;16.56;100.00;98034.88;4981377;28;20077;-65
2022/06/18 00:48:21;;;;;;;2.65;1.23;;;17.40;99.90;;;16.56;100.00;98037.50;4979970;28;20047;-67
2022/06/18 00:50:57;;;;;;;1.77;0.90;;;17.30;99.90;;;16.62;100.00;98037.09;4978862;28;20580;-66
2022/06/18 00:53:42;;;;;;;3.75;1.25;;;17.20;99.90;;;16.55;100.00;98034.97;4978673;28;20142;-69
2022/06/18 00:56:39;;;;;;;2.40;1.02;;;17.20;99.90;;;16.46;100.00;98031.94;4978415;28;20050;-68
2022/06/18 00:59:24;;;;;;;5.10;1.38;;;17.20;99.90;;;16.52;100.00;98036.00;4980958;28;20086;-65
2022/06/18 01:01:52;;;;;;;2.70;1.27;;;17.20;99.90;;;16.65;100.00;98025.59;4978651;28;20146;-69
2022/06/18 01:04:33;;;;;;;3.22;1.30;;;17.20;99.90;;;16.67;100.00;98027.22;4975889;28;20137;-67
2022/06/18 01:07:20;;;;;;;2.50;1.30;;;17.20;99.90;;;16.59;100.00;98024.19;4976065;28;20156;-68
2022/06/18 01:09:49;;;;;;;3.55;1.02;;;17.20;99.90;;;16.64;100.00;98018.69;4975781;28;20412;-66
2022/06/18 01:12:16;;;;;;;1.77;1.10;;;17.20;99.90;;;16.52;100.00;98028.97;4977318;28;20441;-66
2022/06/18 01:14:46;;;;;;;2.13;1.10;;;17.20;99.90;;;16.43;100.00;98021.66;4975588;28;20050;-67
2022/06/18 01:17:13;;;;;;;2.40;1.10;;;17.20;99.90;;;16.34;100.00;98023.97;4977715;28;20047;-66
2022/06/18 01:19:46;;;;;;;2.55;1.20;;;17.10;99.90;;;16.37;100.00;98015.94;4978275;28;20050;-67
2022/06/18 01:22:58;;;;;;;3.80;1.10;;;17.10;99.90;;;16.33;100.00;98022.28;4976831;28;20046;-68
2022/06/18 01:25:28;;;;;;;3.25;1.23;;;17.00;99.90;;;16.25;100.00;98007.03;4976004;28;20173;-66
2022/06/18 01:27:56;;;;;;;5.07;1.05;;;17.00;99.90;;;16.07;100.00;98009.75;4974838;28;20064;-67
2022/06/18 01:30:32;;;;;;;1.95;1.20;;;16.90;99.90;;;16.00;100.00;98004.97;4977600;28;20470;-68
2022/06/18 01:33:00;;;;;;;1.80;1.20;;;16.90;99.90;;;15.99;100.00;98006.78;4977639;28;20042;-68
2022/06/18 01:35:28;;;;;;;2.10;0.98;;;16.80;99.90;;;16.07;100.00;98004.53;4977707;28;20038;-67
2022/06/18 01:37:56;;;;;;;1.75;1.10;;;16.70;99.90;;;16.07;100.00;98007.16;4977044;28;20149;-68
2022/06/18 01:40:55;;;;;;;3.10;1.35;;;16.70;99.90;;;15.87;100.00;98000.47;4978169;28;20082;-68
2022/06/18 01:43:24;;;;;;;2.22;1.20;;;16.70;99.90;;;15.92;100.00;98002.81;4980011;28;20122;-68
2022/06/18 01:45:57;;;;;;;2.30;1.02;;;16.60;99.90;;;15.87;100.00;97997.84;4981582;28;20221;-67
2022/06/18 01:48:34;;;;;;;1.85;1.08;;;16.60;99.90;;;15.97;100.00;97997.31;4979298;28;20047;-67
2022/06/18 01:51:12;;;;;;;2.40;1.10;;;16.60;99.90;;;15.83;100.00;97991.09;4980118;28;20085;-68
2022/06/18 01:53:45;;;;;;;2.72;1.05;;;16.60;99.90;;;15.96;100.00;97987.75;4981028;28;20050;-67
2022/06/18 01:56:25;;;;;;;2.10;1.02;;;16.60;99.90;;;15.86;100.00;97988.28;4979791;28;20076;-65
2022/06/18 01:59:02;;;;;;;2.42;1.33;;;16.50;99.90;;;15.79;100.00;97991.38;4982094;28;20570;-66
2022/06/18 02:01:36;;;;;;;2.42;1.17;;;16.50;99.90;;;15.78;100.00;97982.69;4980520;28;20155;-67
2022/06/18 02:04:03;;;;;;;3.83;1.30;;;16.50;99.90;;;15.88;100.00;97989.06;4979650;28;20084;-66
2022/06/18 02:06:35;;;;;;;1.35;0.98;;;16.50;99.90;;;15.88;100.00;97989.06;4977922;28;20715;-66
2022/06/18 02:09:17;;;;;;;5.80;1.40;;;16.40;99.90;;;15.76;100.00;97988.91;4979935;28;20046;-67
2022/06/18 02:11:44;;;;;;;1.80;1.13;;;16.50;99.90;;;15.64;100.00;97996.47;4980320;28;20089;-67
2022/06/18 02:14:14;;;;;;;2.50;1.10;;;16.40;99.90;;;15.70;100.00;97992.69;4977374;28;20046;-68
2022/06/18 02:16:46;;;;;;;2.78;1.40;;;16.40;99.90;;;15.68;100.00;97984.09;4982497;28;20125;-66
2022/06/18 02:19:15;;;;;;;3.50;1.20;;;16.40;99.90;;;15.68;100.00;97989.31;4982044;28;20815;-66
2022/06/18 02:21:47;;;;;;;2.70;1.20;;;16.40;99.90;;;15.66;100.00;97989.38;4979069;28;20188;-66
2022/06/18 02:24:16;;;;;;;4.40;1.30;;;16.40;99.90;;;15.61;100.00;97990.59;4977637;28;20133;-66
2022/06/18 02:26:45;;;;;;;2.75;1.50;;;16.30;99.90;;;15.60;100.00;97989.75;4977022;28;20064;-66
2022/06/18 02:29:26;;;;;;;6.00;1.55;;;16.30;99.90;;;15.63;100.00;97986.97;4979734;28;20077;-66
2022/06/18 02:31:54;;;;;;;2.00;1.38;;;16.30;99.90;;;15.62;100.00;97985.28;4976564;28;20050;-66
2022/06/18 02:34:29;;;;;;;2.72;1.63;;;16.30;99.90;;;15.58;100.00;97982.94;4981548;28;20050;-66
2022/06/18 02:36:56;;;;;;;3.30;1.67;;;16.30;99.90;;;15.55;100.00;97985.69;4982188;28;20462;-67
2022/06/18 02:39:51;;;;;;;4.78;1.95;;;16.30;99.90;;;15.55;100.00;97983.09;4980550;28;20121;-68
2022/06/18 02:42:19;;;;;;;3.28;1.35;;;16.30;99.90;;;15.44;100.00;97976.69;4976960;28;20549;-67
2022/06/18 02:44:48;;;;;;;4.68;1.45;;;16.20;99.90;;;15.32;100.00;97982.59;4964218;28;20169;-67
2022/06/18 02:47:16;;;;;;;3.40;1.70;;;16.20;99.90;;;15.37;100.00;97984.94;4979916;28;20145;-67
2022/06/18 02:50:06;;;;;;;3.17;1.38;;;16.10;99.90;;;15.56;100.00;97984.78;4980719;28;20130;-67
2022/06/18 02:52:40;;;;;;;3.47;1.50;;;16.10;99.90;;;15.45;100.00;97988.84;4978784;28;20063;-68
2022/06/18 02:55:38;;;;;;;3.30;1.38;;;16.10;99.90;;;15.39;100.00;97986.53;4979228;28;20042;-66
2022/06/18 02:58:18;;;;;;;2.35;1.30;;;16.10;99.90;;;15.30;100.00;97984.44;4978593;28;20145;-66
2022/06/18 03:00:51;;;;;;;4.30;1.50;;;16.10;99.90;;;15.32;100.00;97984.38;4977983;28;20093;-67
2022/06/18 03:03:22;;;;;;;4.50;1.77;;;16.10;99.90;;;15.31;100.00;97977.47;4975732;28;20046;-68
2022/06/18 03:05:52;;;;;;;2.35;1.42;;;16.00;99.90;;;15.41;100.00;97981.25;4978962;28;20053;-67
2022/06/18 03:08:22;;;;;;;4.40;1.63;;;16.00;99.90;;;15.45;100.00;97977.53;4975138;28;20556;-67
2022/06/18 03:13:36;;;;;;;2.63;1.20;;;16.10;99.90;;;15.71;100.00;97973.47;4977691;28;20134;-67
2022/06/18 03:16:07;;;;;;;2.00;1.08;;;16.20;99.90;;;15.67;100.00;97978.00;4978062;28;20047;-67
2022/06/18 03:18:37;;;;;;;2.15;1.20;;;16.20;99.90;;;15.60;100.00;97984.53;4976022;28;20505;-68
2022/06/18 03:21:42;;;;;;;1.77;1.17;;;16.20;99.90;;;15.73;100.00;97984.69;4977797;28;20453;-66
2022/06/18 03:24:10;;;;;;;1.50;1.05;;;16.20;99.90;;;15.76;100.00;97979.28;4980405;28;20043;-67
2022/06/18 03:26:38;;;;;;;1.40;0.90;;;16.20;99.90;;;15.63;100.00;97976.50;4977762;28;20586;-66
2022/06/18 03:29:10;;;;;;;3.30;1.17;;;16.20;99.90;;;15.61;100.00;97987.97;4979129;28;20475;-66
2022/06/18 03:31:37;;;;;;;1.40;1.00;;;16.20;99.90;;;15.61;100.00;97985.38;4976884;28;20134;-68
2022/06/18 03:34:05;;;;;;;2.45;1.08;;;16.20;99.90;;;15.72;100.00;97985.63;4978782;28;20058;-68
2022/06/18 03:36:32;;;;;;;3.22;1.27;;;16.20;99.90;;;15.84;100.00;97978.84;4976762;28;20046;-67
2022/06/18 03:39:00;;;;;;;2.47;1.20;;;16.20;99.90;;;15.91;100.00;97976.72;4978918;28;20070;-66
2022/06/18 03:41:27;;;;;;;2.85;1.40;;;16.10;99.90;;;15.44;100.00;97983.69;4976130;28;20086;-67
2022/06/18 03:43:54;;;;;;;2.17;1.20;;;16.10;99.90;;;15.43;100.00;97987.22;4975358;28;20074;-68
2022/06/18 03:46:21;;;;;;;2.58;1.10;;;16.10;99.90;;;15.56;100.00;97980.38;4975106;28;20062;-66
2022/06/18 03:49:28;;;;;;;5.22;1.27;;;16.00;99.90;;;15.51;100.00;97984.19;4980090;28;20054;-67
2022/06/18 03:51:57;;;;;;;4.60;1.27;;;16.10;99.90;;;15.37;100.00;97990.19;4973883;28;20146;-68
2022/06/18 03:54:24;;;;;;;4.97;1.35;;;16.10;99.90;;;15.63;100.00;97992.19;4977301;28;20137;-67
2022/06/18 03:56:53;;;;;;;3.05;1.20;;;16.10;99.90;;;15.66;100.00;97988.56;4978332;28;20043;-69
2022/06/18 03:59:21;;;;;;;2.22;1.10;;;16.10;99.90;;;15.76;100.00;97991.50;4984549;28;20310;-66
2022/06/18 04:01:48;;;;;;;2.85;1.40;;;16.20;99.90;;;15.52;100.00;97981.47;4981544;28;20038;-67
2022/06/18 04:04:15;;;;;;;2.30;1.20;;;16.20;99.90;;;15.37;100.00;97985.81;4981450;28;20047;-65
2022/06/18 04:06:43;;;;;;;3.78;1.48;;;16.20;99.90;;;15.18;100.00;97987.75;4983271;28;20058;-67
2022/06/18 04:09:11;;;;;;;6.18;1.88;;;16.10;99.90;;;15.00;100.00;97994.81;4981014;28;20147;-66
2022/06/18 04:11:38;;;;;;;4.97;1.70;;;16.00;99.90;;;15.07;100.00;97996.16;4980269;28;20058;-66
2022/06/18 04:14:05;;;;;;;2.85;1.63;;;15.90;99.90;;;15.13;100.00;97995.00;4986508;28;20193;-65
2022/06/18 04:16:33;;;;;;;10.75;2.25;;;16.00;99.90;;;15.17;100.00;97994.75;4980458;28;20428;-68
2022/06/18 04:19:00;;;;;;;3.22;1.50;;;16.00;99.90;;;15.19;100.00;97992.03;4977158;28;20143;-66
2022/06/18 04:21:27;;;;;;;7.30;1.80;;;16.00;99.90;;;14.98;100.00;97988.81;4973252;28;20061;-67
2022/06/18 04:23:55;;;;;;;5.18;1.75;;;15.90;99.90;;;14.92;100.00;97994.41;4972070;28;20125;-66
2022/06/18 04:26:22;;;;;;;2.85;1.63;;;15.90;99.90;;;15.06;100.00;97994.50;4972072;28;20054;-68
2022/06/18 04:28:49;;;;;;;4.05;2.03;;;15.90;99.90;;;15.01;100.00;97991.28;4970683;28;20136;-67
2022/06/18 04:31:17;;;;;;;4.93;1.83;;;15.80;99.90;;;15.08;100.00;97991.81;4971820;28;20469;-68
2022/06/18 04:33:44;;;;;;;4.72;1.60;;;15.90;99.90;;;15.08;100.00;97989.19;4976686;28;20548;-67
2022/06/18 04:36:30;;;;;;;2.47;1.38;;;16.00;99.90;;;15.74;100.00;97989.00;4973035;28;20109;-67
2022/06/18 04:38:58;;;;;;;2.53;1.42;;;16.10;99.90;;;16.13;100.00;97984.19;4973894;28;20085;-68
2022/06/18 04:41:25;;;;;;;5.63;1.55;;;16.50;99.90;;;16.10;100.00;97985.19;4968082;28;20193;-67
2022/06/18 04:43:52;;;;;;;5.63;1.55;;;16.70;99.90;;;16.23;100.00;97983.53;4967328;28;20137;-68
2022/06/18 04:46:19;;;;;;;6.38;1.80;;;16.80;99.90;;;16.17;100.00;97981.28;4972330;28;20721;-67
2022/06/18 04:48:47;;;;;;;4.68;1.60;;;16.80;99.90;;;16.02;100.00;97982.19;4967705;28;20061;-68
2022/06/18 04:51:14;;;;;;;3.33;1.67;;;16.80;99.90;;;15.99;100.00;97974.50;4968241;28;20167;-68
2022/06/18 04:53:41;;;;;;;3.85;1.50;;;16.80;99.90;;;16.09;100.00;97975.66;4972711;28;20313;-67
2022/06/18 04:56:09;;;;;;;2.70;1.60;;;16.90;99.90;;;16.03;100.00;97976.00;4970485;28;20141;-67
2022/06/18 04:58:36;;;;;;;3.10;1.77;;;16.90;99.90;;;16.09;100.00;97978.25;4970561;28;20058;-67
2022/06/18 05:01:04;;;;;;;2.20;1.58;;;16.80;99.90;;;15.88;100.00;97982.97;4967069;28;20060;-68
2022/06/18 05:03:32;;;;;;;6.78;1.55;;;16.80;99.90;;;15.97;100.00;97982.44;4967437;28;20053;-67
2022/06/18 05:05:59;;;;;;;4.18;1.70;;;16.80;99.90;;;16.00;100.00;97973.56;4974944;28;20046;-67
2022/06/18 05:08:27;;;;;;;3.05;1.65;;;16.90;99.90;;;16.06;100.00;97979.28;4965756;28;20144;-67
2022/06/18 05:10:54;;;;;;;4.15;1.50;;;17.00;99.90;;;15.99;100.00;97974.50;4969774;28;20427;-67
2022/06/18 05:13:21;;;;;;;3.75;1.80;;;17.00;99.90;;;16.03;100.00;97976.00;4968015;28;20062;-67
2022/06/18 05:15:52;;;;;;;3.67;1.77;;;17.00;99.90;;;16.23;100.00;97978.28;4970425;28;20483;-66
2022/06/18 05:18:20;;;;;;;5.88;1.65;;;17.20;99.90;;;16.36;100.00;97969.72;4976106;28;20054;-67
2022/06/18 05:20:52;;;;;;;3.55;1.45;;;17.20;99.90;;;16.42;100.00;97972.81;4972696;28;20050;-68
2022/06/18 05:23:20;;;;;;;4.93;1.90;;;17.20;99.90;;;16.42;100.00;97972.81;4968809;28;20078;-67
2022/06/18 05:25:52;;;;;;;2.38;1.30;;;17.30;99.90;;;16.85;100.00;97962.34;4966953;28;20890;-68
2022/06/18 05:28:19;;;;;;;2.13;1.20;;;17.40;99.90;;;16.91;100.00;97956.72;4983797;28;20172;-67
2022/06/18 05:30:46;;;;;;;13.20;1.60;;;17.60;99.90;;;17.06;100.00;97952.31;4971570;28;20136;-66
2022/06/18 05:33:13;;;;;;;52.08;6.22;;;17.70;99.90;;;17.07;100.00;97951.38;4967442;28;20054;-66
2022/06/18 05:35:42;;;;;;;13.25;2.38;;;17.80;99.90;;;17.22;100.00;97951.31;4969487;28;20133;-67
2022/06/18 05:38:20;;;;;;;3.00;1.27;;;18.00;99.90;;;17.31;100.00;97956.84;4973841;28;20050;-66
2022/06/18 05:40:47;;;;;;;3.88;1.67;;;18.20;99.90;;;17.47;100.00;97948.84;4969201;28;20081;-66
2022/06/18 05:43:15;;;;;;;5.75;1.48;;;18.30;99.90;;;17.58;100.00;97944.66;4969148;28;21608;-65
2022/06/18 05:45:42;;;;;;;6.32;1.45;;;18.50;99.90;;;17.71;100.00;97946.38;4968539;28;20145;-69
2022/06/18 05:48:11;;;;;;;3.35;1.20;;;18.70;99.90;;;17.92;100.00;97945.94;4972010;28;21794;-67
2022/06/18 05:50:39;;;;;;;4.30;1.30;;;18.90;99.90;;;18.16;100.00;97943.47;4971273;28;20495;-66
2022/06/18 05:53:06;;;;;;;3.92;1.27;;;19.00;99.90;;;18.33;100.00;97939.66;4966438;28;20461;-68
2022/06/18 05:55:33;;;;;;;2.35;1.30;;;19.20;99.90;;;18.55;100.00;97934.63;4971722;28;20058;-67
2022/06/18 05:58:00;;;;;;;4.07;1.30;;;19.30;99.90;;;18.65;100.00;97931.34;4965796;28;20112;-66
2022/06/18 06:00:32;;;;;;;2.65;1.25;;;19.50;99.90;;;18.83;100.00;97930.09;4995905;28;20142;-67
2022/06/18 06:02:59;;;;;;;13.55;2.17;;;19.70;99.90;;;19.05;100.00;97929.41;4997826;28;20516;-69
2022/06/18 06:05:26;;;;;;;15.43;3.15;;;19.90;99.90;;;19.23;100.00;97935.16;4995185;28;20428;-67
2022/06/18 06:07:54;;;;;;;5.25;1.30;;;20.10;99.90;;;19.33;100.00;97928.25;4992448;28;20050;-67
2022/06/18 06:13:18;;;;;;;8.52;1.23;;;20.50;99.90;;;19.77;100.00;97920.69;4996487;28;20107;-67
2022/06/18 06:15:46;;;;;;;4.03;1.30;;;20.70;99.90;;;19.91;100.00;97927.56;4989507;28;20747;-67
2022/06/18 06:18:16;;;;;;;2.65;0.90;;;20.80;99.90;;;20.17;100.00;97918.53;4996439;28;20085;-67
2022/06/18 06:20:47;;;;;;;4.07;1.40;;;21.00;99.90;;;20.48;100.00;97924.94;4992305;28;20125;-65
2022/06/18 06:23:14;;;;;;;2.78;1.13;;;21.10;99.90;;;20.61;100.00;97924.84;4993151;28;20159;-66
2022/06/18 06:25:44;;;;;;;3.45;1.30;;;21.30;99.90;;;20.78;100.00;97923.53;4991020;28;20136;-67
2022/06/18 06:28:30;;;;;;;1.67;1.08;;;21.50;99.90;;;20.95;100.00;97926.63;5000628;28;20050;-67
2022/06/18 06:30:57;;;;;;;6.07;1.42;;;21.70;99.90;;;21.20;100.00;97928.16;4995761;28;20057;-67
2022/06/18 06:33:25;;;;;;;4.88;1.27;;;21.80;99.90;;;21.43;100.00;97932.44;4992176;28;20558;-68
2022/06/18 06:35:52;;;;;;;3.05;0.80;;;22.10;99.90;;;21.66;100.00;97930.53;4992642;28;20161;-68
2022/06/18 06:38:19;;;;;;;3.20;1.00;;;22.40;99.90;;;21.88;100.00;97928.78;5003051;28;20084;-67
2022/06/18 06:40:47;;;;;;;2.17;1.00;;;22.70;99.90;;;22.16;100.00;97931.75;4993215;28;20045;-68
2022/06/18 06:43:17;;;;;;;5.07;0.90;;;23.00;99.90;;;22.39;100.00;97929.81;4995987;28;20535;-69
2022/06/18 06:45:44;;;;;;;5.15;0.90;;;23.20;99.90;;;22.55;100.00;97930.19;4993398;28;20046;-68
2022/06/18 06:48:11;;;;;;;8.63;1.02;;;23.40;99.90;;;22.72;100.00;97931.38;4991066;28;21182;-68
2022/06/18 06:50:40;;;;;;;6.00;0.98;;;23.60;99.90;;;22.86;100.00;97925.72;4991228;28;20058;-69
2022/06/18 06:53:07;;;;;;;2.83;1.00;;;23.80;99.90;;;23.08;100.00;97932.66;4992551;28;20132;-68
2022/06/18 06:58:24;;;;;;;2.00;0.77;;;24.10;99.90;;;23.48;100.00;97928.25;4997014;28;20108;-70
2022/06/18 07:00:55;;;;;;;1.52;0.80;;;24.30;99.90;;;23.44;100.00;97929.50;4991559;28;20133;-69
2022/06/18 07:03:30;;;;;;;1.88;0.80;;;24.40;99.90;;;23.73;100.00;97922.41;4992218;28;20585;-68
2022/06/18 07:06:00;;;;;;;3.67;0.75;;;24.60;99.90;;;23.75;100.00;97927.59;4988972;28;20955;-69
2022/06/18 08:06:29;;;;;;;2.10;0.50;;;26.60;92.80;;;26.95;98.06;97885.81;5071830;27;20550;-61
2022/06/18 08:08:56;;;;;;;3.90;0.60;;;27.70;89.50;;;26.99;100.00;97885.31;5050586;28;20179;-61
2022/06/18 08:11:25;;;;;;;1.85;0.50;;;27.80;90.30;;;27.02;94.97;97890.31;5048404;28;20136;-61
2022/06/18 08:13:53;;;;;;;3.50;0.50;;;27.90;86.60;;;27.32;99.11;97882.75;5049872;28;20049;-62
2022/06/18 08:16:23;;;;;;;2.38;0.60;;;28.10;88.60;;;27.27;92.99;97877.09;5026865;28;20077;-61
2022/06/18 08:18:50;;;;;;;1.30;0.50;;;28.20;84.80;;;27.41;95.61;97884.44;5011537;28;20045;-63
2022/06/18 08:21:24;;;;;;;1.98;0.50;;;28.20;85.70;;;27.57;93.29;97872.94;5039395;28;20045;-63
2022/06/18 08:24:09;;;;;;;1.20;0.50;;;28.40;84.10;;;27.52;89.65;97875.28;5031654;28;20084;-63
2022/06/18 08:26:38;;;;;;;1.60;0.50;;;28.50;82.40;;;27.69;88.85;97873.47;5026701;28;20046;-63
2022/06/18 08:29:09;;;;;;;2.22;0.40;;;28.70;81.90;;;27.93;88.15;97876.16;5028027;28;20127;-63
2022/06/18 08:31:36;;;;;;;1.60;0.50;;;28.80;81.30;;;27.82;89.44;97871.13;5031015;28;20047;-63
2022/06/18 08:34:03;;;;;;;1.10;0.50;;;28.90;81.10;;;27.67;89.97;97865.63;5032394;28;20084;-63
2022/06/18 08:36:32;;;;;;;3.55;0.35;;;29.00;80.10;;;28.22;91.87;97865.94;5030603;28;20546;-64
2022/06/18 08:38:59;;;;;;;1.25;0.50;;;29.10;81.30;;;28.48;89.26;97863.88;5029456;28;20081;-63
2022/06/18 08:42:03;;;;;;;3.35;0.60;;;29.30;80.50;;;28.49;86.54;97862.06;5028936;28;20055;-64
2022/06/18 08:45:03;;;;;;;2.08;0.47;;;29.40;79.00;;;29.31;88.05;97865.19;5031575;28;20140;-63
2022/06/18 08:48:14;;;;;;;1.67;0.40;;;29.70;80.80;;;29.72;85.99;97862.25;5032782;28;20041;-63
2022/06/18 08:51:40;;;;;;;1.83;0.40;;;30.20;81.10;;;30.12;81.34;97851.34;5023453;28;20077;-64
2022/06/18 08:54:45;;;;;;;1.73;0.60;;;30.70;78.70;;;30.07;77.98;97859.91;5005555;28;20680;-64
2022/06/18 08:58:02;;;;;;;19.30;1.38;;;30.90;75.70;;;30.51;81.92;97853.78;5010314;28;20475;-64
2022/06/18 09:01:14;;;;;;;2.80;0.40;;;30.90;77.30;;;29.81;79.18;97853.13;5013120;28;20512;-63
2022/06/18 09:04:00;;;;;;;2.35;0.50;;;31.10;74.60;;;30.27;76.21;97860.25;5016861;28;20052;-71
2022/06/18 09:07:13;;;;;;;2.53;0.50;;;31.00;74.50;;;30.07;77.41;97867.94;5027353;28;20076;-70
2022/06/18 09:10:05;;;;;;;1.65;0.30;;;31.00;74.30;;;29.54;77.83;97862.53;5021699;28;20112;-71
2022/06/18 09:12:44;;;;;;;1.80;0.75;;;31.10;73.50;;;29.98;76.53;97861.84;5008557;28;20055;-71
2022/06/18 09:15:37;;;;;;;3.20;0.45;;;31.20;73.10;;;29.66;73.15;97859.44;5021771;28;20583;-70
2022/06/18 09:18:19;;;;;;;3.42;0.63;;;31.40;72.30;;;30.76;77.68;97854.31;5033561;28;20115;-70
2022/06/18 09:20:56;;;;;;;1.60;0.60;;;31.40;74.20;;;30.62;75.51;97857.84;5019622;28;20572;-71
2022/06/18 09:23:27;;;;;;;2.15;0.50;;;31.50;73.70;;;30.94;74.82;97855.81;5026734;28;20046;-70
2022/06/18 09:25:58;;;;;;;4.57;0.60;;;31.60;74.20;;;31.47;72.52;97848.34;5024529;28;20057;-71
2022/06/18 09:28:40;;;;;;;7.30;1.08;;;31.80;73.60;;;31.46;72.75;97844.84;5020835;28;20057;-70
2022/06/18 09:31:21;;;;;;;3.30;0.50;;;31.90;73.90;;;31.63;71.75;97837.34;5018960;28;20155;-70
2022/06/18 09:34:00;;;;;;;4.30;0.70;;;32.00;73.40;;;31.92;68.29;97829.31;5014502;28;20077;-71
2022/06/18 09:36:35;;;;;;;4.53;0.50;;;32.20;73.40;;;31.21;69.68;97835.47;5021910;28;20055;-70
2022/06/18 09:39:08;;;;;;;3.45;0.47;;;32.40;71.30;;;31.25;69.73;97828.72;5020472;28;20089;-70
2022/06/18 09:42:00;;;;;;;3.38;0.60;;;32.50;70.80;;;31.87;69.02;97830.72;5028428;28;20058;-70
2022/06/18 09:44:33;;;;;;;4.25;0.70;;;32.60;71.60;;;31.77;72.33;97826.72;5021604;28;20133;-70
2022/06/18 09:47:02;;;;;;;4.15;0.50;;;32.60;72.10;;;31.75;70.78;97818.88;5020332;28;20116;-70
2022/06/18 09:49:29;;;;;;;3.60;0.65;;;32.60;72.00;;;32.95;72.88;97824.94;5024164;28;20456;-71
2022/06/18 09:52:05;;;;;;;2.90;0.60;;;32.80;73.70;;;33.86;62.52;97816.41;5024440;28;20152;-69
2022/06/18 09:54:41;;;;;;;3.28;0.60;;;33.40;71.70;;;34.88;64.72;97818.69;5021397;28;20408;-70
2022/06/18 09:57:13;;;;;;;5.30;0.70;;;34.00;73.20;;;34.80;64.09;97810.84;5022686;28;20133;-70
2022/06/18 09:59:49;;;;;;;8.23;1.20;;;34.30;72.30;;;33.91;56.87;97816.63;5026501;28;20036;-70
2022/06/18 10:02:27;;;;;;;4.82;0.60;;;34.40;69.20;;;35.32;54.16;97814.31;5021989;28;20136;-71
2022/06/18 10:07:48;;;;;;;8.18;1.00;;;34.30;70.30;;;33.92;49.65;97812.09;5023475;28;20046;-71
2022/06/18 10:10:26;;;;;;;3.05;0.60;;;34.40;66.80;;;33.43;50.85;97800.66;5024305;28;20176;-71
2022/06/18 10:12:58;;;;;;;4.57;0.55;;;34.30;66.70;;;34.42;53.37;97792.72;5023504;28;20071;-70
2022/06/18 10:15:27;;;;;;;4.97;0.70;;;34.10;68.20;;;34.66;49.33;97799.28;5027141;28;20128;-70
2022/06/18 10:18:31;;;;;;;3.70;0.80;;;34.20;68.20;;;35.63;47.91;97793.75;5019696;28;20219;-70
2022/06/18 10:21:26;;;;;;;4.90;0.70;;;34.70;68.20;;;35.25;44.32;97790.06;5024907;28;20084;-70
2022/06/18 10:24:36;;;;;;;3.83;0.60;;;35.20;66.90;;;36.31;45.32;97780.22;5024826;28;20069;-70
2022/06/18 10:27:25;;;;;;;5.87;0.90;;;35.50;66.40;;;35.85;44.50;97773.41;5004286;28;20065;-70
2022/06/18 10:30:05;;;;;;;8.68;0.90;;;35.40;65.50;;;34.57;49.26;97779.81;5023918;28;20128;-70
2022/06/18 10:33:05;;;;;;;7.05;0.70;;;35.10;65.80;;;34.66;48.97;97780.41;5032199;28;20083;-70
2022/06/18 10:35:50;;;;;;;2.85;0.65;;;34.90;66.50;;;36.59;54.91;97778.88;5020592;28;20313;-70
2022/06/18 10:38:27;;;;;;;2.67;0.60;;;35.30;69.60;;;37.16;46.71;97779.38;5019870;28;20175;-70
2022/06/18 10:41:34;;;;;;;10.15;0.90;;;36.00;67.70;;;37.23;45.18;97774.69;5023897;28;20761;-70
2022/06/18 10:44:20;;;;;;;6.72;0.65;;;36.30;65.90;;;36.56;45.32;97772.03;5020160;28;20456;-70
2022/06/18 10:47:04;;;;;;;6.93;0.80;;;36.30;65.90;;;34.36;47.62;97772.84;5021495;28;20136;-68
2022/06/18 10:49:32;;;;;;;5.40;0.80;;;35.80;64.20;;;33.40;50.14;97770.66;5021518;28;20132;-70
2022/06/18 10:52:00;;;;;;;4.85;0.80;;;35.50;64.30;;;34.06;52.22;97767.09;5024035;28;20492;-70
2022/06/18 10:54:32;;;;;;;4.28;0.80;;;35.30;65.10;;;36.33;45.08;97761.06;5022921;28;20069;-63
2022/06/18 10:56:59;;;;;;;6.78;1.02;;;35.40;65.50;;;37.30;43.73;97763.75;5023468;28;20139;-63
2022/06/18 10:59:32;;;;;;;5.30;0.93;;;35.80;66.20;;;36.62;42.86;97749.50;5021371;28;20045;-63
2022/06/18 11:02:14;;;;;;;9.13;1.00;;;36.20;64.30;;;37.55;43.32;97758.16;5024856;28;20081;-63
2022/06/18 11:04:58;;;;;;;4.40;0.60;;;36.50;65.10;;;37.53;41.85;97754.00;5023901;28;20068;-63
2022/06/18 11:07:29;;;;;;;4.57;0.73;;;36.50;64.30;;;37.88;42.86;97746.72;5021343;28;20124;-63
2022/06/18 11:10:00;;;;;;;7.72;1.67;;;36.70;64.90;;;38.43;39.69;97741.94;5018533;28;20073;-63
2022/06/18 11:12:38;;;;;;;6.57;0.90;;;37.00;64.30;;;34.76;39.73;97748.41;5007895;28;20073;-63
2022/06/18 11:15:29;;;;;;;6.70;0.88;;;37.00;60.60;;;37.34;38.78;97737.88;4997529;28;20046;-63
2022/06/18 11:17:56;;;;;;;4.40;1.10;;;36.90;61.90;;;36.18;35.96;97737.16;4998132;28;20100;-68
2022/06/18 11:20:30;;;;;;;8.05;0.80;;;;;;;36.61;35.76;97739.75;5003397;28;20097;-68
2022/06/18 11:23:00;;;;;;;8.63;1.60;;;37.20;59.70;;;35.17;34.95;97731.81;5002628;28;20050;-68
2022/06/18 11:25:44;;;;;;;12.98;1.73;;;37.00;58.40;;;35.11;31.01;97735.38;4984290;28;20120;-68
2022/06/18 11:28:21;;;;;;;11.18;2.08;;;36.70;56.10;;;34.60;31.99;97730.88;5015825;28;20056;-68
2022/06/18 11:30:50;;;;;;;10.55;1.67;;;36.30;56.20;;;35.50;32.40;97716.38;4998594;28;20045;-68
2022/06/18 11:33:33;;;;;;;17.75;2.40;;;36.00;57.20;;;36.20;31.01;97721.53;4999536;28;20046;-68
2022/06/18 11:36:12;;;;;;;15.23;2.85;;;36.00;56.50;;;36.37;29.79;97714.44;5002132;28;20476;-68
2022/06/18 11:38:41;;;;;;;10.50;1.50;;;36.30;56.40;;;35.46;29.12;97709.78;5002967;28;20119;-68
2022/06/18 11:41:18;;;;;;;10.48;1.20;;;36.20;55.50;;;36.06;30.55;97715.44;4999381;28;20528;-69
2022/06/18 11:44:10;;;;;;;54.22;4.20;;;36.20;56.60;;;36.17;29.88;97711.97;5019252;28;20763;-69
2022/06/18 11:46:49;;;;;;;10.20;1.48;;;36.50;55.90;;;36.78;28.91;97703.94;5002784;28;20065;-68
2022/06/18 11:49:19;;;;;;;13.00;1.27;;;36.70;55.60;;;37.80;28.83;97701.03;5002562;28;20049;-68
2022/06/18 11:52:03;;;;;;;11.85;1.38;;;37.20;56.80;;;38.56;28.46;97692.88;5000875;28;20141;-68
2022/06/18 11:54:43;;;;;;;13.80;1.58;;;37.90;57.20;;;39.25;28.70;97695.44;4999652;28;20141;-68
2022/06/18 11:57:25;;;;;;;10.48;1.15;;;38.20;56.50;;;38.40;26.52;97699.84;5000871;28;20757;-69
2022/06/18 12:00:11;;;;;;;9.95;1.45;;;38.50;55.00;;;37.02;28.51;97692.13;4990509;28;20865;-68